Time,TemperatureF,DewpointF,PressureIn,WindDirection,WindDirectionDegrees,WindSpeedMPH,WindSpeedGustMPH,Humidity,HourlyPrecipIn,Conditions,Clouds,dailyrainin,SoftwareType,DateUTC
2013-07-27 00:10:00,61.2,55.7,29.95,WSW,247,4.2,-999.0,82,-99.99,,,0.00,Acu-Link.com,2013-07-27 05:10:00,
2013-07-27 00:25:00,60.8,55.9,29.95,West,270,3.7,-999.0,84,-99.99,,,0.00,Acu-Link.com,2013-07-27 05:25:00,
2013-07-27 00:41:00,60.4,55.5,29.95,WSW,247,6.8,-999.0,84,-99.99,,,0.00,Acu-Link.com,2013-07-27 05:41:00,
2013-07-27 00:56:00,60.3,55.8,29.94,West,270,5.8,-999.0,85,-99.99,,,0.00,Acu-Link.com,2013-07-27 05:56:00,
2013-07-27 01:26:00,59.7,55.8,29.94,NNW,337,3.7,-999.0,87,-99.99,,,0.00,Acu-Link.com,2013-07-27 06:26:00,
2013-07-27 01:42:00,59.2,55.3,29.94,NNE,22,3.2,-999.0,87,-99.99,,,0.00,Acu-Link.com,2013-07-27 06:42:00,
2013-07-27 01:57:00,59.2,55.3,29.93,West,270,3.2,-999.0,87,-99.99,,,0.00,Acu-Link.com,2013-07-27 06:57:00,
2013-07-27 02:12:00,59.0,55.1,29.93,ENE,67,1.7,-999.0,87,-99.99,,,0.00,Acu-Link.com,2013-07-27 07:12:00,
2013-07-27 02:27:00,58.8,54.9,29.93,WSW,247,2.7,-999.0,87,-99.99,,,0.00,Acu-Link.com,2013-07-27 07:27:00,
2013-07-27 02:43:00,58.5,55.0,29.93,WSW,247,4.7,-999.0,88,-99.99,,,0.00,Acu-Link.com,2013-07-27 07:43:00,
2013-07-27 02:58:00,58.1,57.5,29.93,NNW,337,3.2,-999.0,98,-99.99,,,0.00,Acu-Link.com,2013-07-27 07:58:00,
2013-07-27 03:13:00,57.9,57.3,29.93,NNW,337,3.2,-999.0,98,-99.99,,,0.00,Acu-Link.com,2013-07-27 08:13:00,
2013-07-27 03:28:00,57.6,57.0,29.93,NNW,337,4.2,-999.0,98,-99.99,,,0.00,Acu-Link.com,2013-07-27 08:28:00,
2013-07-27 03:44:00,57.0,56.4,29.93,West,270,0.0,-999.0,98,-99.99,,,0.00,Acu-Link.com,2013-07-27 08:44:00,
2013-07-27 03:59:00,56.8,56.2,29.94,SW,225,2.2,-999.0,98,-99.99,,,0.00,Acu-Link.com,2013-07-27 08:59:00,
2013-07-27 04:14:00,56.5,55.9,29.94,SW,225,1.7,-999.0,98,-99.99,,,0.00,Acu-Link.com,2013-07-27 09:14:00,
2013-07-27 04:29:00,56.3,55.7,29.94,SW,225,0.0,-999.0,98,-99.99,,,0.00,Acu-Link.com,2013-07-27 09:29:00,
2013-07-27 04:44:00,55.9,55.3,29.95,West,270,2.2,-999.0,98,-99.99,,,0.00,Acu-Link.com,2013-07-27 09:44:00,
2013-07-27 04:59:00,55.9,55.3,29.96,WSW,247,3.2,-999.0,98,-99.99,,,0.00,Acu-Link.com,2013-07-27 09:59:00,
2013-07-27 05:14:00,56.1,55.5,29.96,North,0,3.7,-999.0,98,-99.99,,,0.00,Acu-Link.com,2013-07-27 10:14:00,
2013-07-27 05:29:00,56.1,55.5,29.95,West,270,4.7,-999.0,98,-99.99,,,0.00,Acu-Link.com,2013-07-27 10:29:00,
2013-07-27 05:44:00,56.1,55.5,29.96,NNW,337,1.7,-999.0,98,-99.99,,,0.00,Acu-Link.com,2013-07-27 10:44:00,
2013-07-27 06:00:00,56.1,55.5,29.97,West,270,3.7,-999.0,98,-99.99,,,0.00,Acu-Link.com,2013-07-27 11:00:00,
2013-07-27 06:15:00,55.9,55.3,29.97,West,270,5.8,-999.0,98,-99.99,,,0.00,Acu-Link.com,2013-07-27 11:15:00,
2013-07-27 06:30:00,55.9,55.3,29.98,SW,225,3.2,-999.0,98,-99.99,,,0.00,Acu-Link.com,2013-07-27 11:30:00,
2013-07-27 06:45:00,55.4,54.8,29.97,NNW,337,3.7,-999.0,98,-99.99,,,0.00,Acu-Link.com,2013-07-27 11:45:00,
2013-07-27 07:00:00,58.1,53.0,29.97,West,270,7.3,-999.0,83,-99.99,,,0.00,Acu-Link.com,2013-07-27 12:00:00,
2013-07-27 07:16:00,57.6,52.5,29.97,North,0,2.7,-999.0,83,-99.99,,,0.00,Acu-Link.com,2013-07-27 12:16:00,
2013-07-27 07:31:00,56.8,52.0,29.97,NW,315,3.7,-999.0,84,-99.99,,,0.00,Acu-Link.com,2013-07-27 12:31:00,
2013-07-27 07:46:00,58.8,53.0,29.97,West,270,8.9,-999.0,81,-99.99,,,0.00,Acu-Link.com,2013-07-27 12:46:00,
2013-07-27 08:02:00,59.7,52.8,29.97,NNW,337,3.2,-999.0,78,-99.99,,,0.00,Acu-Link.com,2013-07-27 13:02:00,
2013-07-27 08:17:00,60.4,52.1,29.97,NE,45,3.2,-999.0,74,-99.99,,,0.00,Acu-Link.com,2013-07-27 13:17:00,
2013-07-27 08:32:00,60.1,51.8,29.97,West,270,6.3,-999.0,74,-99.99,,,0.00,Acu-Link.com,2013-07-27 13:32:00,
2013-07-27 08:47:00,61.0,51.9,29.98,SW,225,3.7,-999.0,72,-99.99,,,0.00,Acu-Link.com,2013-07-27 13:47:00,
2013-07-27 09:03:00,59.4,51.1,29.98,WSW,247,6.8,-999.0,74,-99.99,,,0.00,Acu-Link.com,2013-07-27 14:03:00,
2013-07-27 09:18:00,60.1,51.0,29.98,SSE,157,6.3,-999.0,72,-99.99,,,0.00,Acu-Link.com,2013-07-27 14:18:00,
2013-07-27 09:33:00,60.8,51.7,29.97,North,0,4.7,-999.0,72,-99.99,,,0.00,Acu-Link.com,2013-07-27 14:33:00,
2013-07-27 09:48:00,59.9,51.2,29.97,West,270,2.7,-999.0,73,-99.99,,,0.00,Acu-Link.com,2013-07-27 14:48:00,
2013-07-27 10:04:00,60.3,50.9,29.97,NNE,22,6.3,-999.0,71,-99.99,,,0.00,Acu-Link.com,2013-07-27 15:04:00,
2013-07-27 10:19:00,61.5,50.0,29.97,West,270,3.2,-999.0,66,-99.99,,,0.00,Acu-Link.com,2013-07-27 15:19:00,
2013-07-27 10:34:00,62.4,50.1,29.97,West,270,5.3,-999.0,64,-99.99,,,0.00,Acu-Link.com,2013-07-27 15:34:00,
2013-07-27 10:49:00,61.7,49.0,29.96,NNW,337,2.7,-999.0,63,-99.99,,,0.00,Acu-Link.com,2013-07-27 15:49:00,
2013-07-27 11:04:00,61.3,48.2,29.97,WNW,292,9.4,-999.0,62,-99.99,,,0.00,Acu-Link.com,2013-07-27 16:04:00,
2013-07-27 11:20:00,61.9,48.7,29.97,NNW,337,4.7,-999.0,62,-99.99,,,0.00,Acu-Link.com,2013-07-27 16:20:00,
2013-07-27 11:35:00,61.9,47.9,29.97,South,180,3.2,-999.0,60,-99.99,,,0.00,Acu-Link.com,2013-07-27 16:35:00,
2013-07-27 11:50:00,62.1,47.6,29.97,West,270,4.7,-999.0,59,-99.99,,,0.00,Acu-Link.com,2013-07-27 16:50:00,
2013-07-27 12:05:00,62.4,45.5,29.97,NW,315,4.7,-999.0,54,-99.99,,,0.00,Acu-Link.com,2013-07-27 17:05:00,
2013-07-27 12:20:00,63.0,46.6,29.97,NNW,337,7.3,-999.0,55,-99.99,,,0.00,Acu-Link.com,2013-07-27 17:20:00,
2013-07-27 12:36:00,62.2,46.8,29.97,West,270,2.7,-999.0,57,-99.99,,,0.00,Acu-Link.com,2013-07-27 17:36:00,
2013-07-27 12:51:00,63.0,47.1,29.97,North,0,3.7,-999.0,56,-99.99,,,0.00,Acu-Link.com,2013-07-27 17:51:00,
2013-07-27 13:21:00,63.9,47.4,29.97,NNE,22,4.2,-999.0,55,-99.99,,,0.00,Acu-Link.com,2013-07-27 18:21:00,
2013-07-27 13:36:00,64.0,45.5,29.97,NNE,22,3.7,-999.0,51,-99.99,,,0.00,Acu-Link.com,2013-07-27 18:36:00,
2013-07-27 13:52:00,63.1,45.7,29.96,WSW,247,4.7,-999.0,53,-99.99,,,0.00,Acu-Link.com,2013-07-27 18:52:00,
2013-07-27 14:07:00,64.4,45.4,29.96,West,270,5.8,-999.0,50,-99.99,,,0.00,Acu-Link.com,2013-07-27 19:07:00,
2013-07-27 14:22:00,64.6,45.0,29.96,SSW,202,5.3,-999.0,49,-99.99,,,0.00,Acu-Link.com,2013-07-27 19:22:00,
2013-07-27 14:37:00,65.3,46.2,29.96,West,270,1.7,-999.0,50,-99.99,,,0.00,Acu-Link.com,2013-07-27 19:37:00,
2013-07-27 14:53:00,64.8,46.8,29.95,NNE,22,11.9,-999.0,52,-99.99,,,0.00,Acu-Link.com,2013-07-27 19:53:00,
2013-07-27 15:08:00,64.4,45.4,29.95,WNW,292,5.8,-999.0,50,-99.99,,,0.00,Acu-Link.com,2013-07-27 20:08:00,
2013-07-27 15:23:00,66.0,45.7,29.95,WSW,247,3.7,-999.0,48,-99.99,,,0.00,Acu-Link.com,2013-07-27 20:23:00,
2013-07-27 15:39:00,65.1,46.0,29.95,WNW,292,1.7,-999.0,50,-99.99,,,0.00,Acu-Link.com,2013-07-27 20:39:00,
2013-07-27 15:54:00,66.2,46.5,29.95,West,270,8.3,-999.0,49,-99.99,,,0.00,Acu-Link.com,2013-07-27 20:54:00,
2013-07-27 16:09:00,65.1,47.0,29.95,West,270,2.7,-999.0,52,-99.99,,,0.00,Acu-Link.com,2013-07-27 21:09:00,
2013-07-27 16:24:00,64.6,46.1,29.95,North,0,8.3,-999.0,51,-99.99,,,0.00,Acu-Link.com,2013-07-27 21:24:00,
2013-07-27 16:40:00,65.3,47.2,29.95,East,90,0.0,-999.0,52,-99.99,,,0.00,Acu-Link.com,2013-07-27 21:40:00,
2013-07-27 16:55:00,64.8,46.2,29.95,SW,225,3.7,-999.0,51,-99.99,,,0.00,Acu-Link.com,2013-07-27 21:55:00,
2013-07-27 17:10:00,65.8,45.0,29.94,WSW,247,5.8,-999.0,47,-99.99,,,0.00,Acu-Link.com,2013-07-27 22:10:00,
2013-07-27 17:25:00,68.2,46.6,29.93,WNW,292,2.2,-999.0,46,-99.99,,,0.00,Acu-Link.com,2013-07-27 22:25:00,
2013-07-27 17:41:00,69.1,47.4,29.93,WSW,247,6.8,-999.0,46,-99.99,,,0.00,Acu-Link.com,2013-07-27 22:41:00,
2013-07-27 17:56:00,68.9,47.3,29.93,West,270,0.0,-999.0,46,-99.99,,,0.00,Acu-Link.com,2013-07-27 22:56:00,
2013-07-27 18:26:00,65.7,46.5,29.93,West,270,6.8,-999.0,50,-99.99,,,0.00,Acu-Link.com,2013-07-27 23:26:00,
2013-07-27 18:42:00,64.2,46.7,29.94,South,180,4.7,-999.0,53,-99.99,,,0.00,Acu-Link.com,2013-07-27 23:42:00,
2013-07-27 18:57:00,63.9,46.4,29.93,West,270,2.7,-999.0,53,-99.99,,,0.00,Acu-Link.com,2013-07-27 23:57:00,
2013-07-27 19:12:00,63.5,46.6,29.93,NNW,337,0.0,-999.0,54,-99.99,,,0.00,Acu-Link.com,2013-07-28 00:12:00,
2013-07-27 19:27:00,63.1,46.7,29.93,West,270,1.7,-999.0,55,-99.99,,,0.00,Acu-Link.com,2013-07-28 00:27:00,
2013-07-27 19:43:00,63.1,47.6,29.93,WNW,292,2.2,-999.0,57,-99.99,,,0.00,Acu-Link.com,2013-07-28 00:43:00,
2013-07-27 19:58:00,63.0,48.0,29.93,SW,225,0.0,-999.0,58,-99.99,,,0.00,Acu-Link.com,2013-07-28 00:58:00,
2013-07-27 20:13:00,62.2,48.6,29.93,NW,315,0.0,-999.0,61,-99.99,,,0.00,Acu-Link.com,2013-07-28 01:13:00,
2013-07-27 20:29:00,61.5,49.6,29.94,NNW,337,0.0,-999.0,65,-99.99,,,0.00,Acu-Link.com,2013-07-28 01:29:00,
2013-07-27 20:44:00,61.0,49.6,29.94,NW,315,0.0,-999.0,66,-99.99,,,0.00,Acu-Link.com,2013-07-28 01:44:00,
2013-07-27 20:59:00,60.4,49.0,29.94,NNW,337,2.7,-999.0,66,-99.99,,,0.00,Acu-Link.com,2013-07-28 01:59:00,
2013-07-27 21:14:00,59.5,48.1,29.94,WSW,247,0.0,-999.0,66,-99.99,,,0.00,Acu-Link.com,2013-07-28 02:14:00,
2013-07-27 21:29:00,58.6,47.7,29.94,West,270,0.0,-999.0,67,-99.99,,,0.00,Acu-Link.com,2013-07-28 02:29:00,
2013-07-27 21:44:00,57.9,47.8,29.94,WNW,292,0.0,-999.0,69,-99.99,,,0.00,Acu-Link.com,2013-07-28 02:44:00,
2013-07-27 22:00:00,57.4,47.7,29.95,SSW,202,0.0,-999.0,70,-99.99,,,0.00,Acu-Link.com,2013-07-28 03:00:00,
2013-07-27 22:15:00,57.7,48.0,29.95,WSW,247,0.0,-999.0,70,-99.99,,,0.00,Acu-Link.com,2013-07-28 03:15:00,
2013-07-27 22:30:00,57.7,48.0,29.94,SW,225,0.0,-999.0,70,-99.99,,,0.00,Acu-Link.com,2013-07-28 03:30:00,
2013-07-27 22:46:00,57.2,48.3,29.94,WSW,247,0.0,-999.0,72,-99.99,,,0.00,Acu-Link.com,2013-07-28 03:46:00,
2013-07-27 23:16:00,56.8,47.9,29.94,SW,225,0.0,-999.0,72,-99.99,,,0.00,Acu-Link.com,2013-07-28 04:16:00,
2013-07-27 23:31:00,56.1,49.0,29.94,SW,225,0.0,-999.0,77,-99.99,,,0.00,Acu-Link.com,2013-07-28 04:31:00,
2013-07-27 23:47:00,55.2,48.5,29.93,SSW,202,0.0,-999.0,78,-99.99,,,0.00,Acu-Link.com,2013-07-28 04:47:00,